Time;durP1;ratioP1;P1;durP2;ratioP2;P2;SDS_P1;SDS_P2;PMS_P1;PMS_P2;Temp;Humidity;BMP_temperature;BMP_pressure;BME280_temperature;BME280_humidity;BME280_pressure;Samples;Min_cycle;Max_cycle;Signal;HPM_P1;HPM_P2
2023/12/18 00:00:24;;;;;;;0.60;0.60;;;;;;;2.31;100.00;98715.53;29395;295;63004;-54
2023/12/18 00:00:55;;;;;;;0.60;0.60;;;;;;;2.32;100.00;98720.69;29395;207;63009;-54
2023/12/18 00:01:28;;;;;;;0.60;0.60;;;;;;;2.32;100.00;98717.19;29395;226;63000;-54
2023/12/18 00:01:59;;;;;;;0.60;0.60;;;;;;;2.34;100.00;98721.31;29395;218;63008;-55
2023/12/18 00:02:31;;;;;;;0.60;0.60;;;;;;;2.35;100.00;98708.75;29395;223;63005;-54
2023/12/18 00:03:03;;;;;;;0.60;0.60;;;;;;;2.36;100.00;98713.09;29395;255;63013;-55
2023/12/18 00:03:35;;;;;;;0.60;0.60;;;;;;;2.36;100.00;98718.44;29395;244;63005;-54
2023/12/18 00:04:07;;;;;;;0.60;0.60;;;;;;;2.38;100.00;98716.41;29395;247;63009;-53
2023/12/18 00:04:38;;;;;;;0.60;0.60;;;;;;;2.38;100.00;98713.72;29395;198;63005;-55
2023/12/18 00:05:09;;;;;;;0.60;0.60;;;;;;;2.38;100.00;98711.06;29394;197;64013;-54
2023/12/18 00:05:41;;;;;;;0.60;0.60;;;;;;;2.38;100.00;98710.22;29395;208;63010;-54
2023/12/18 00:06:12;;;;;;;0.60;0.60;;;;;;;2.39;100.00;98711.88;29394;253;64009;-53
2023/12/18 00:06:44;;;;;;;0.60;0.60;;;;;;;2.38;100.00;98712.91;29395;205;63004;-54
2023/12/18 00:07:15;;;;;;;0.60;0.60;;;;;;;2.38;100.00;98713.72;29395;279;63009;-54
2023/12/18 00:07:47;;;;;;;0.60;0.60;;;;;;;2.37;100.00;98708.56;29395;205;63004;-54
2023/12/18 00:08:18;;;;;;;0.60;0.60;;;;;;;2.35;100.00;98711.44;29395;214;63009;-54
2023/12/18 00:08:50;;;;;;;0.52;0.52;;;;;;;2.34;100.00;98709.78;29395;291;63004;-54
2023/12/18 00:09:21;;;;;;;0.60;0.60;;;;;;;2.31;100.00;98708.31;29395;258;63008;-54
2023/12/18 00:09:52;;;;;;;0.60;0.60;;;;;;;2.30;100.00;98706.66;29395;265;63005;-56
2023/12/18 00:10:23;;;;;;;0.60;0.60;;;;;;;2.28;100.00;98706.03;29394;215;64014;-54
2023/12/18 00:10:54;;;;;;;0.60;0.60;;;;;;;2.28;100.00;98699.84;29395;233;63005;-54
2023/12/18 00:11:25;;;;;;;0.60;0.60;;;;;;;2.27;100.00;98703.53;29395;233;63009;-54
2023/12/18 00:11:57;;;;;;;1.02;1.02;;;;;;;2.27;100.00;98703.53;29395;251;63005;-55
2023/12/18 00:12:28;;;;;;;0.60;0.60;;;;;;;2.25;100.00;98694.88;29395;207;63009;-54
2023/12/18 00:12:59;;;;;;;0.60;0.60;;;;;;;2.24;100.00;98695.91;29395;258;63005;-54
2023/12/18 00:13:31;;;;;;;0.60;0.60;;;;;;;2.23;100.00;98702.28;29395;219;63009;-54
2023/12/18 00:14:03;;;;;;;0.60;0.60;;;;;;;2.21;100.00;98694.44;29395;247;63004;-54
2023/12/18 00:14:34;;;;;;;0.60;0.60;;;;;;;2.21;100.00;98698.97;29395;230;63009;-55
2023/12/18 00:15:07;;;;;;;0.60;0.60;;;;;;;2.21;100.00;98693.59;29395;205;63004;-55
2023/12/18 00:15:38;;;;;;;0.60;0.60;;;;;;;2.19;100.00;98687.63;29394;232;64013;-54
2023/12/18 00:16:09;;;;;;;0.70;0.70;;;;;;;2.20;100.00;98689.28;29395;210;63004;-54
2023/12/18 00:16:40;;;;;;;0.60;0.60;;;;;;;2.20;100.00;98691.94;29395;220;63008;-53
2023/12/18 00:17:12;;;;;;;0.60;0.60;;;;;;;2.20;100.00;98689.28;29395;217;63004;-54
2023/12/18 00:17:43;;;;;;;0.60;0.60;;;;;;;2.20;100.00;98702.66;29395;204;63009;-65
2023/12/18 00:18:15;;;;;;;0.60;0.60;;;;;;;2.20;100.00;98686.59;29395;204;63005;-54
2023/12/18 00:18:46;;;;;;;0.60;0.60;;;;;;;2.20;100.00;98687.44;29395;313;63009;-54
2023/12/18 00:19:18;;;;;;;0.60;0.60;;;;;;;2.20;100.00;98681.25;29395;215;63005;-54
2023/12/18 00:19:50;;;;;;;0.62;0.62;;;;;;;2.19;100.00;98685.78;29395;213;63009;-66
2023/12/18 00:20:22;;;;;;;0.70;0.70;;;;;;;2.22;100.00;98685.38;29395;205;63016;-54
2023/12/18 00:20:53;;;;;;;0.60;0.60;;;;;;;2.23;100.00;98686.22;29394;232;64013;-54
2023/12/18 00:21:25;;;;;;;0.60;0.60;;;;;;;2.23;100.00;98686.22;29395;235;63013;-54
2023/12/18 00:21:56;;;;;;;0.60;0.60;;;;;;;2.22;100.00;98685.38;29395;283;63009;-54
2023/12/18 00:22:27;;;;;;;0.60;0.60;;;;;;;2.24;100.00;98687.88;29395;228;63004;-54
2023/12/18 00:22:59;;;;;;;0.60;0.60;;;;;;;2.20;100.00;98682.06;29395;197;63011;-54
2023/12/18 00:23:31;;;;;;;0.60;0.60;;;;;;;2.25;100.00;98689.53;29395;211;63000;-54
2023/12/18 00:24:03;;;;;;;0.60;0.60;;;;;;;2.26;100.00;98688.50;29395;205;63009;-54
2023/12/18 00:24:34;;;;;;;0.60;0.60;;;;;;;2.29;100.00;98690.78;29395;207;63004;-54
2023/12/18 00:25:06;;;;;;;0.60;0.60;;;;;;;2.29;100.00;98685.44;29395;208;63009;-54
2023/12/18 00:25:38;;;;;;;0.60;0.60;;;;;;;2.31;100.00;98688.75;29395;222;63005;-54
2023/12/18 00:26:09;;;;;;;0.60;0.60;;;;;;;2.33;100.00;98686.69;29394;218;64014;-53
2023/12/18 00:26:41;;;;;;;0.60;0.60;;;;;;;2.35;100.00;98684.66;29394;266;64009;-54
2023/12/18 00:27:12;;;;;;;0.60;0.60;;;;;;;2.36;100.00;98688.97;29395;211;63009;-54
2023/12/18 00:27:43;;;;;;;0.60;0.60;;;;;;;2.36;100.00;98686.31;29395;216;63005;-54
2023/12/18 00:28:17;;;;;;;0.60;0.60;;;;;;;2.37;100.00;98687.97;29394;223;64009;-53
2023/12/18 00:28:48;;;;;;;0.60;0.60;;;;;;;2.37;100.00;98690.63;29395;220;63005;-55
2023/12/18 00:29:19;;;;;;;0.60;0.60;;;;;;;2.39;100.00;98696.63;29395;238;63009;-54
2023/12/18 00:29:51;;;;;;;0.70;0.70;;;;;;;2.40;100.00;98689.41;29395;199;63004;-54
2023/12/18 00:30:22;;;;;;;0.70;0.70;;;;;;;2.39;100.00;98691.28;29395;202;63009;-54
2023/12/18 00:30:53;;;;;;;0.60;0.60;;;;;;;2.38;100.00;98684.25;29395;211;63010;-54
2023/12/18 00:31:24;;;;;;;0.60;0.60;;;;;;;2.37;100.00;98682.59;29395;262;63009;-54
2023/12/18 00:31:56;;;;;;;0.60;0.60;;;;;;;2.37;100.00;98687.97;29394;223;64008;-54
2023/12/18 00:32:27;;;;;;;0.70;0.70;;;;;;;2.37;100.00;98681.78;29395;228;63008;-54
2023/12/18 00:32:58;;;;;;;0.60;0.60;;;;;;;2.35;100.00;98684.66;29395;242;63005;-54
2023/12/18 00:33:29;;;;;;;0.60;0.60;;;;;;;2.34;100.00;98686.50;29395;230;63009;-54
2023/12/18 00:34:01;;;;;;;0.60;0.60;;;;;;;2.31;100.00;98684.22;29395;206;63005;-54
2023/12/18 00:34:32;;;;;;;0.60;0.60;;;;;;;2.30;100.00;98689.75;29395;283;63009;-54
2023/12/18 00:35:04;;;;;;;0.60;0.60;;;;;;;2.27;100.00;98680.28;29395;204;63005;-54
2023/12/18 00:35:35;;;;;;;0.60;0.60;;;;;;;2.26;100.00;98683.13;29395;205;63009;-67
2023/12/18 00:36:07;;;;;;;0.60;0.60;;;;;;;2.25;100.00;98681.47;29395;290;63015;-54
2023/12/18 00:36:38;;;;;;;0.70;0.70;;;;;;;2.24;100.00;98677.16;29395;217;63009;-54
2023/12/18 00:37:09;;;;;;;0.60;0.60;;;;;;;2.22;100.00;98674.66;29394;254;64009;-54
2023/12/18 00:37:40;;;;;;;0.60;0.60;;;;;;;2.21;100.00;98677.53;29395;222;63009;-54
2023/12/18 00:38:12;;;;;;;0.70;0.70;;;;;;;2.17;100.00;98677.09;29395;223;63004;-54
2023/12/18 00:38:43;;;;;;;0.60;0.60;;;;;;;2.15;100.00;98672.97;29394;209;64013;-54
2023/12/18 00:39:17;;;;;;;0.65;0.65;;;;;;;2.14;100.00;98682.00;29395;267;63004;-54
2023/12/18 00:39:48;;;;;;;0.60;0.60;;;;;;;2.13;100.00;98675.00;29395;280;63008;-54
2023/12/18 00:40:20;;;;;;;0.60;0.60;;;;;;;2.11;100.00;98672.53;29395;217;63005;-54
2023/12/18 00:40:51;;;;;;;0.60;0.60;;;;;;;2.11;100.00;98677.88;29395;261;63009;-54
2023/12/18 00:41:22;;;;;;;0.60;0.60;;;;;;;2.10;100.00;98675.41;29395;198;63005;-54
2023/12/18 00:41:53;;;;;;;0.60;0.60;;;;;;;2.10;100.00;98678.06;29395;204;63009;-55
2023/12/18 00:42:25;;;;;;;0.60;0.60;;;;;;;2.09;100.00;98673.75;29395;223;63005;-54
2023/12/18 00:42:57;;;;;;;0.60;0.60;;;;;;;2.07;100.00;98673.97;29395;198;63009;-55
2023/12/18 00:43:28;;;;;;;0.60;0.60;;;;;;;2.07;100.00;98675.81;29395;202;63004;-54
2023/12/18 00:44:00;;;;;;;0.60;0.60;;;;;;;2.07;100.00;98675.81;29394;364;64013;-54
2023/12/18 00:44:31;;;;;;;0.60;0.60;;;;;;;2.06;100.00;98674.16;29395;205;63004;-54
2023/12/18 00:45:04;;;;;;;0.60;0.60;;;;;;;2.07;100.00;98675.81;29395;224;63009;-55
2023/12/18 00:45:35;;;;;;;0.60;0.60;;;;;;;2.07;100.00;98678.50;29395;252;63004;-54
2023/12/18 00:46:06;;;;;;;0.60;0.60;;;;;;;2.07;100.00;98675.81;29395;227;63008;-55
2023/12/18 00:46:37;;;;;;;0.60;0.60;;;;;;;2.08;100.00;98683.63;29395;253;63004;-54
2023/12/18 00:47:08;;;;;;;0.60;0.60;;;;;;;2.09;100.00;98676.41;29394;213;64014;-54
2023/12/18 00:47:40;;;;;;;0.60;0.60;;;;;;;2.09;100.00;98673.75;29395;231;63005;-54
2023/12/18 00:48:11;;;;;;;0.60;0.60;;;;;;;2.10;100.00;98675.41;29395;220;63009;-55
2023/12/18 00:48:43;;;;;;;0.60;0.60;;;;;;;2.11;100.00;98672.53;29395;218;63005;-54
2023/12/18 00:49:15;;;;;;;0.60;0.60;;;;;;;2.12;100.00;98678.69;29395;249;63019;-54
2023/12/18 00:49:46;;;;;;;0.60;0.60;;;;;;;2.13;100.00;98672.31;29395;241;63005;-54
2023/12/18 00:50:17;;;;;;;0.60;0.60;;;;;;;2.15;100.00;98678.31;29395;259;63009;-54
2023/12/18 00:50:49;;;;;;;0.60;0.60;;;;;;;2.16;100.00;98675.44;29395;209;63005;-54
2023/12/18 00:51:20;;;;;;;0.60;0.60;;;;;;;2.16;100.00;98674.63;29395;222;63009;-54
2023/12/18 00:51:51;;;;;;;0.60;0.60;;;;;;;2.16;100.00;98674.63;29395;233;63017;-54
2023/12/18 00:52:23;;;;;;;0.60;0.60;;;;;;;2.17;100.00;98677.09;29394;212;64013;-54
2023/12/18 00:52:54;;;;;;;0.75;0.75;;;;;;;2.17;100.00;98671.75;29395;202;63004;-54
2023/12/18 00:53:25;;;;;;;2.10;2.00;;;;;;;2.17;100.00;98671.75;29395;214;63009;-53
2023/12/18 00:53:56;;;;;;;0.60;0.60;;;;;;;2.16;100.00;98677.28;29395;202;63004;-54
2023/12/18 00:54:28;;;;;;;0.88;0.88;;;;;;;2.16;100.00;98671.94;29395;242;63009;-54
2023/12/18 00:54:59;;;;;;;1.62;1.60;;;;;;;2.17;100.00;98677.09;29395;328;63008;-54
2023/12/18 00:55:34;;;;;;;0.60;0.60;;;;;;;2.16;100.00;98674.63;29395;308;63009;-54
2023/12/18 00:56:06;;;;;;;0.70;0.70;;;;;;;2.13;100.00;98672.31;29395;307;63005;-54
2023/12/18 00:56:37;;;;;;;0.70;0.70;;;;;;;2.11;100.00;98669.84;29395;229;63009;-68
2023/12/18 00:57:08;;;;;;;0.70;0.70;;;;;;;2.12;100.00;98668.00;29395;229;63005;-54
2023/12/18 00:57:39;;;;;;;0.60;0.60;;;;;;;2.14;100.00;98671.31;29394;241;64013;-67
2023/12/18 00:58:11;;;;;;;0.60;0.60;;;;;;;2.13;100.00;98670.47;29395;322;63005;-54
2023/12/18 00:58:42;;;;;;;0.60;0.60;;;;;;;2.13;100.00;98672.31;29395;236;63009;-54
2023/12/18 00:59:13;;;;;;;0.70;0.70;;;;;;;2.13;100.00;98669.66;29395;218;63004;-54
2023/12/18 00:59:44;;;;;;;0.70;0.70;;;;;;;2.11;100.00;98666.34;29395;211;63009;-54
2023/12/18 01:00:16;;;;;;;0.70;0.70;;;;;;;2.08;100.00;98661.41;29395;196;63004;-57
2023/12/18 01:00:48;;;;;;;0.60;0.60;;;;;;;2.06;100.00;98669.63;29395;244;63009;-54
2023/12/18 01:01:19;;;;;;;0.70;0.70;;;;;;;2.05;100.00;98670.66;29395;206;63004;-54
2023/12/18 01:01:50;;;;;;;0.60;0.60;;;;;;;2.03;100.00;98674.53;29395;245;63008;-54
2023/12/18 01:02:21;;;;;;;0.60;0.60;;;;;;;2.01;100.00;98667.53;29395;209;63005;-54
2023/12/18 01:02:53;;;;;;;0.60;0.60;;;;;;;2.01;100.00;98667.53;29394;197;64014;-54
2023/12/18 01:03:27;;;;;;;0.60;0.60;;;;;;;1.98;100.00;98662.56;29395;198;63005;-55
2023/12/18 01:03:58;;;;;;;0.60;0.60;;;;;;;1.96;100.00;98669.97;29395;199;63020;-54
2023/12/18 01:04:30;;;;;;;0.70;0.70;;;;;;;1.94;100.00;98666.66;29395;202;63005;-54
2023/12/18 01:05:04;;;;;;;0.60;0.60;;;;;;;1.92;100.00;98663.34;29395;233;63009;-54
2023/12/18 01:05:35;;;;;;;0.70;0.70;;;;;;;1.91;100.00;98667.03;29395;209;63005;-54
2023/12/18 01:06:06;;;;;;;0.70;0.70;;;;;;;1.88;100.00;98655.88;29395;215;63009;-54
2023/12/18 01:06:37;;;;;;;0.60;0.60;;;;;;;1.87;100.00;98660.41;29395;214;63004;-54
2023/12/18 01:07:09;;;;;;;0.60;0.60;;;;;;;1.85;100.00;98657.09;29395;345;63009;-54
2023/12/18 01:07:41;;;;;;;0.60;0.60;;;;;;;1.85;100.00;98662.44;29395;207;63004;-54
2023/12/18 01:08:13;;;;;;;0.70;0.70;;;;;;;1.85;100.00;98662.44;29394;221;64013;-55
2023/12/18 01:08:44;;;;;;;0.70;0.70;;;;;;;1.83;100.00;98656.47;29395;198;63004;-54
2023/12/18 01:09:15;;;;;;;0.60;0.60;;;;;;;1.83;100.00;98658.31;29395;243;63008;-55
2023/12/18 01:09:46;;;;;;;0.70;0.70;;;;;;;1.83;100.00;98658.31;29395;224;63010;-55
2023/12/18 01:10:17;;;;;;;0.70;0.70;;;;;;;1.82;100.00;98662.84;29395;205;63009;-55
2023/12/18 01:10:49;;;;;;;0.60;0.60;;;;;;;1.81;100.00;98660.34;29395;205;63005;-54
2023/12/18 01:11:20;;;;;;;0.60;0.60;;;;;;;1.81;100.00;98660.34;29395;290;63009;-54
2023/12/18 01:11:51;;;;;;;21.12;13.32;;;;;;;1.79;100.00;98652.53;29385;212;65005;-54
2023/12/18 01:12:22;;;;;;;0.80;0.80;;;;;;;1.79;100.00;98663.22;29395;223;63009;-54
2023/12/18 01:12:53;;;;;;;0.60;0.60;;;;;;;1.80;100.00;98658.69;29395;308;63005;-54
2023/12/18 01:13:25;;;;;;;0.60;0.60;;;;;;;1.79;100.00;98657.88;29394;202;64013;-54
2023/12/18 01:13:56;;;;;;;0.60;0.60;;;;;;;1.77;100.00;98659.91;29395;219;63004;-54
2023/12/18 01:14:27;;;;;;;2.28;1.73;;;;;;;1.79;100.00;98647.16;29395;199;63009;-67
2023/12/18 01:14:58;;;;;;;0.70;0.70;;;;;;;1.78;100.00;98650.84;29395;218;63004;-54
2023/12/18 01:15:30;;;;;;;0.60;0.60;;;;;;;1.78;100.00;98652.72;29395;335;63009;-55
2023/12/18 01:16:02;;;;;;;1.15;1.15;;;;;;;1.78;100.00;98648.19;29395;297;63017;-54
2023/12/18 01:16:33;;;;;;;0.60;0.60;;;;;;;1.78;100.00;98652.72;29395;222;63008;-56
2023/12/18 01:17:04;;;;;;;0.70;0.70;;;;;;;1.77;100.00;98654.56;29395;217;63005;-67
2023/12/18 01:17:35;;;;;;;0.70;0.70;;;;;;;1.78;100.00;98650.84;29395;197;63012;-55
2023/12/18 01:18:07;;;;;;;0.70;0.70;;;;;;;1.76;100.00;98647.53;29395;233;63005;-55
2023/12/18 01:18:38;;;;;;;0.60;0.60;;;;;;;1.76;100.00;98652.91;29394;208;64014;-54
2023/12/18 01:19:09;;;;;;;0.70;0.70;;;;;;;1.76;100.00;98649.41;29395;225;63005;-54
2023/12/18 01:19:40;;;;;;;0.70;0.70;;;;;;;1.74;100.00;98654.13;29395;265;63009;-54
2023/12/18 01:20:12;;;;;;;2.87;2.78;;;;;;;1.74;100.00;98654.13;29395;365;63005;-55
2023/12/18 01:20:43;;;;;;;0.60;0.60;;;;;;;1.76;100.00;98646.72;29395;256;63009;-54
2023/12/18 01:21:15;;;;;;;0.68;0.68;;;;;;;1.76;100.00;98647.53;29395;203;63004;-54
2023/12/18 01:21:46;;;;;;;0.60;0.60;;;;;;;1.77;100.00;98654.56;29395;212;63009;-56
2023/12/18 01:22:17;;;;;;;0.60;0.60;;;;;;;1.77;100.00;98646.53;29395;250;63009;-54
2023/12/18 01:22:48;;;;;;;0.60;0.60;;;;;;;1.77;100.00;98653.72;29395;342;63009;-56
2023/12/18 01:23:20;;;;;;;0.60;0.60;;;;;;;1.75;100.00;98656.59;29395;261;63004;-54
2023/12/18 01:23:52;;;;;;;0.70;0.70;;;;;;;1.76;100.00;98657.44;29394;223;64013;-54
2023/12/18 01:24:23;;;;;;;3.80;3.70;;;;;;;1.74;100.00;98657.63;29395;210;63004;-54
2023/12/18 01:24:54;;;;;;;0.70;0.70;;;;;;;1.73;100.00;98653.31;29395;307;63009;-55
2023/12/18 01:25:25;;;;;;;0.60;0.60;;;;;;;1.72;100.00;98659.69;29395;234;63005;-54
2023/12/18 01:25:56;;;;;;;0.60;0.60;;;;;;;1.72;100.00;98657.00;29395;253;63009;-56
2023/12/18 01:26:28;;;;;;;0.60;0.60;;;;;;;1.73;100.00;98658.66;29395;216;63005;-54
2023/12/18 01:27:00;;;;;;;0.68;0.68;;;;;;;1.73;100.00;98655.16;29395;221;63009;-55
2023/12/18 01:27:33;;;;;;;0.60;0.60;;;;;;;1.72;100.00;98661.53;29395;242;63005;-54
2023/12/18 01:28:05;;;;;;;0.60;0.60;;;;;;;1.71;100.00;98654.53;29395;290;63009;-54
2023/12/18 01:28:36;;;;;;;0.60;0.60;;;;;;;1.70;100.00;98656.38;29395;202;63004;-54
2023/12/18 01:29:09;;;;;;;0.60;0.60;;;;;;;1.68;100.00;98656.56;29394;210;64013;-54
2023/12/18 01:29:40;;;;;;;0.65;0.65;;;;;;;1.66;100.00;98657.78;29395;231;63004;-54
2023/12/18 01:30:13;;;;;;;0.60;0.60;;;;;;;1.66;100.00;98657.78;29395;225;63009;-55
2023/12/18 01:30:46;;;;;;;0.70;0.70;;;;;;;1.66;100.00;98657.78;29395;230;63004;-54
2023/12/18 01:31:27;;;;;;;0.70;0.70;;;;;;;1.64;100.00;98654.47;29395;223;63008;-54
2023/12/18 01:31:58;;;;;;;0.60;0.60;;;;;;;1.65;100.00;98661.47;29417;223;63004;-55
2023/12/18 01:32:31;;;;;;;0.60;0.60;;;;;;;1.63;100.00;98655.50;29395;197;63009;-54
2023/12/18 01:33:03;;;;;;;0.68;0.68;;;;;;;1.62;100.00;98656.50;29395;207;63005;-54
2023/12/18 01:33:35;;;;;;;0.60;0.60;;;;;;;1.62;100.00;98657.34;29395;216;63028;-54
2023/12/18 01:34:06;;;;;;;0.60;0.60;;;;;;;1.61;100.00;98657.53;29395;224;63008;-53
2023/12/18 01:34:38;;;;;;;0.70;0.70;;;;;;;1.59;100.00;98657.72;29394;202;64013;-54
2023/12/18 01:35:10;;;;;;;0.60;0.60;;;;;;;1.59;100.00;98657.72;29395;205;63005;-66
2023/12/18 01:35:41;;;;;;;0.60;0.60;;;;;;;1.56;100.00;98658.09;29395;205;63015;-54
2023/12/18 01:36:12;;;;;;;0.62;0.62;;;;;;;1.56;100.00;98654.59;29395;212;63004;-54
2023/12/18 01:36:44;;;;;;;0.70;0.70;;;;;;;1.55;100.00;98660.97;29395;249;63009;-54
2023/12/18 01:37:15;;;;;;;0.70;0.70;;;;;;;1.55;100.00;98650.25;29395;218;63004;-55
2023/12/18 01:37:47;;;;;;;0.70;0.70;;;;;;;1.55;100.00;98655.62;29395;218;63016;-54
2023/12/18 01:38:18;;;;;;;0.60;0.60;;;;;;;1.56;100.00;98651.91;29395;226;63004;-54
2023/12/18 01:38:51;;;;;;;0.60;0.60;;;;;;;1.54;100.00;98654.78;29395;247;63009;-53
2023/12/18 01:39:23;;;;;;;0.60;0.60;;;;;;;1.54;100.00;98653.97;29395;239;63005;-55
2023/12/18 01:39:54;;;;;;;0.60;0.60;;;;;;;1.51;100.00;98655.16;29394;216;64014;-54
2023/12/18 01:40:25;;;;;;;0.60;0.60;;;;;;;1.52;100.00;98650.66;29395;245;63005;-54
2023/12/18 01:40:56;;;;;;;1.50;1.50;;;;;;;1.53;100.00;98652.31;29395;215;63009;-54
2023/12/18 01:41:28;;;;;;;0.60;0.60;;;;;;;1.53;100.00;98646.94;29395;238;63005;-54
2023/12/18 01:41:59;;;;;;;0.60;0.60;;;;;;;1.53;100.00;98658.47;29395;313;63009;-54
2023/12/18 01:42:31;;;;;;;0.68;0.68;;;;;;;1.52;100.00;98650.66;29395;217;63015;-54
2023/12/18 01:43:03;;;;;;;0.60;0.60;;;;;;;1.52;100.00;98650.66;29395;302;63009;-54
2023/12/18 01:43:34;;;;;;;0.60;0.60;;;;;;;1.52;100.00;98647.97;29395;211;63004;-54
2023/12/18 01:44:05;;;;;;;0.60;0.60;;;;;;;1.50;100.00;98650.00;29395;197;63018;-54
2023/12/18 01:44:37;;;;;;;0.60;0.60;;;;;;;1.48;100.00;98639.50;29395;254;63004;-54
2023/12/18 01:45:09;;;;;;;0.60;0.60;;;;;;;1.49;100.00;98648.34;29394;202;64013;-54
2023/12/18 01:45:43;;;;;;;0.60;0.60;;;;;;;1.48;100.00;98649.38;29395;209;63004;-54
2023/12/18 01:46:24;;;;;;;0.60;0.60;;;;;;;1.47;100.00;98645.03;29395;224;63008;-54
2023/12/18 01:46:57;;;;;;;0.68;0.68;;;;;;;1.45;100.00;98639.88;29417;199;63005;-54
2023/12/18 01:47:28;;;;;;;0.65;0.65;;;;;;;1.47;100.00;98642.38;29395;363;63009;-55
2023/12/18 01:48:00;;;;;;;0.62;0.62;;;;;;;1.46;100.00;98641.53;29395;199;63005;-54
2023/12/18 01:48:33;;;;;;;0.70;0.70;;;;;;;1.46;100.00;98640.72;29395;296;63009;-54
2023/12/18 01:49:05;;;;;;;0.70;0.70;;;;;;;1.44;100.00;98638.22;29395;231;63005;-54
2023/12/18 01:49:36;;;;;;;0.60;0.60;;;;;;;1.45;100.00;98642.56;29395;204;63009;-54
2023/12/18 01:50:08;;;;;;;0.60;0.60;;;;;;;1.43;100.00;98636.56;29395;229;63005;-54
2023/12/18 01:50:40;;;;;;;0.60;0.60;;;;;;;1.44;100.00;98632.03;29394;222;64013;-54
2023/12/18 01:51:12;;;;;;;0.60;0.60;;;;;;;1.43;100.00;98646.44;29395;215;63009;-54
2023/12/18 01:51:44;;;;;;;0.70;0.70;;;;;;;1.43;100.00;98635.75;29395;288;63009;-54
2023/12/18 01:52:17;;;;;;;0.70;0.70;;;;;;;1.43;100.00;98641.09;29395;197;63004;-54
2023/12/18 01:52:49;;;;;;;21.37;20.08;;;;;;;1.42;100.00;98634.09;29385;196;65009;-54
2023/12/18 01:53:25;;;;;;;0.70;0.70;;;;;;;1.42;100.00;98634.09;29395;215;63004;-55
2023/12/18 01:53:58;;;;;;;0.60;0.60;;;;;;;1.42;100.00;98631.41;29395;207;63009;-55
2023/12/18 01:54:30;;;;;;;0.60;0.60;;;;;;;1.42;100.00;98639.44;29395;315;63005;-54
2023/12/18 01:55:02;;;;;;;0.68;0.68;;;;;;;1.44;100.00;98634.72;29395;292;63009;-54
2023/12/18 01:55:33;;;;;;;0.60;0.60;;;;;;;1.45;100.00;98639.88;29395;214;63005;-54
2023/12/18 01:56:06;;;;;;;0.60;0.60;;;;;;;1.48;100.00;98633.31;29394;219;64013;-54
2023/12/18 01:56:40;;;;;;;0.60;0.60;;;;;;;1.48;100.00;98625.28;29395;222;63005;-54
2023/12/18 01:57:12;;;;;;;0.60;0.60;;;;;;;1.45;100.00;98626.50;29395;196;63009;-54
2023/12/18 01:57:44;;;;;;;0.60;0.60;;;;;;;1.46;100.00;98627.34;29395;211;63005;-54
2023/12/18 01:58:16;;;;;;;0.60;0.60;;;;;;;1.44;100.00;98624.84;29395;224;63009;-54
2023/12/18 01:58:49;;;;;;;0.60;0.60;;;;;;;1.44;100.00;98627.53;29395;234;63004;-54
2023/12/18 01:59:23;;;;;;;0.60;0.60;;;;;;;1.44;100.00;98622.19;29395;202;63023;-54
2023/12/18 01:59:56;;;;;;;1.10;1.10;;;;;;;1.44;100.00;98624.03;29395;225;63004;-54
2023/12/18 02:00:27;;;;;;;0.60;0.60;;;;;;;1.43;100.00;98625.03;29395;240;63009;-54
2023/12/18 02:01:01;;;;;;;0.60;0.60;;;;;;;1.43;100.00;98625.03;29395;284;63004;-54
2023/12/18 02:01:32;;;;;;;0.60;0.60;;;;;;;1.43;100.00;98625.03;29394;344;64014;-56
2023/12/18 02:02:04;;;;;;;0.70;0.70;;;;;;;1.43;100.00;98617.00;29395;207;63005;-55
2023/12/18 02:02:36;;;;;;;0.70;0.70;;;;;;;1.42;100.00;98623.38;29395;342;63026;-69
2023/12/18 02:03:10;;;;;;;0.80;0.80;;;;;;;1.41;100.00;98622.56;29395;238;63007;-54
2023/12/18 02:03:43;;;;;;;0.60;0.60;;;;;;;1.41;100.00;98621.72;29395;346;63009;-54
2023/12/18 02:04:16;;;;;;;0.70;0.70;;;;;;;1.42;100.00;98620.72;29395;238;63005;-54
2023/12/18 02:04:48;;;;;;;0.62;0.62;;;;;;;1.41;100.00;98621.72;29395;208;63009;-53
2023/12/18 02:05:20;;;;;;;0.60;0.60;;;;;;;1.41;100.00;98619.06;29395;241;63005;-54
2023/12/18 02:05:51;;;;;;;0.70;0.70;;;;;;;1.40;100.00;98612.06;29395;206;63009;-54
2023/12/18 02:06:23;;;;;;;0.65;0.65;;;;;;;1.41;100.00;98619.88;29395;297;63004;-54
2023/12/18 02:06:57;;;;;;;0.60;0.60;;;;;;;1.41;100.00;98621.72;29394;216;64013;-65
2023/12/18 02:07:29;;;;;;;0.70;0.70;;;;;;;1.43;100.00;98620.53;29395;287;63004;-55
2023/12/18 02:08:02;;;;;;;0.70;0.70;;;;;;;1.43;100.00;98619.69;29395;208;63009;-54
2023/12/18 02:08:34;;;;;;;0.70;0.70;;;;;;;1.43;100.00;98623.19;29395;234;63004;-54
2023/12/18 02:09:06;;;;;;;0.60;0.60;;;;;;;1.43;100.00;98623.19;29395;309;63009;-54
2023/12/18 02:09:38;;;;;;;0.70;0.70;;;;;;;1.43;100.00;98625.03;29395;212;63005;-54
2023/12/18 02:10:10;;;;;;;0.60;0.60;;;;;;;1.43;100.00;98623.19;29395;236;63009;-54
2023/12/18 02:10:42;;;;;;;0.60;0.60;;;;;;;1.42;100.00;98626.88;29395;293;63005;-54
2023/12/18 02:11:14;;;;;;;0.70;0.70;;;;;;;1.40;100.00;98615.56;29395;226;63009;-54
2023/12/18 02:11:45;;;;;;;0.70;0.70;;;;;;;1.40;100.00;98618.22;29395;306;63005;-53
2023/12/18 02:12:18;;;;;;;0.70;0.70;;;;;;;1.39;100.00;98623.78;29394;202;64013;-55
2023/12/18 02:12:49;;;;;;;0.60;0.60;;;;;;;1.37;100.00;98621.31;29395;287;63005;-54
2023/12/18 02:13:21;;;;;;;0.70;0.70;;;;;;;1.39;100.00;98618.44;29395;238;63009;-54
2023/12/18 02:13:53;;;;;;;0.70;0.70;;;;;;;1.38;100.00;98617.62;29395;211;63004;-54
2023/12/18 02:14:24;;;;;;;0.70;0.70;;;;;;;1.37;100.00;98617.81;29395;225;63009;-55
2023/12/18 02:14:57;;;;;;;0.70;0.70;;;;;;;1.37;100.00;98617.81;29395;197;63004;-54
2023/12/18 02:15:28;;;;;;;0.60;0.60;;;;;;;1.37;100.00;98615.13;29395;202;63009;-54
2023/12/18 02:16:00;;;;;;;0.60;0.60;;;;;;;1.38;100.00;98619.47;29395;214;63004;-68
2023/12/18 02:16:31;;;;;;;0.60;0.60;;;;;;;1.37;100.00;98620.50;29395;271;63008;-54
2023/12/18 02:17:03;;;;;;;0.60;0.60;;;;;;;1.34;100.00;98614.50;29395;234;63005;-56
2023/12/18 02:17:34;;;;;;;0.70;0.70;;;;;;;1.33;100.00;98615.53;29394;270;64014;-54
2023/12/18 02:18:05;;;;;;;0.68;0.68;;;;;;;1.33;100.00;98615.53;29395;196;63005;-55
2023/12/18 02:18:46;;;;;;;0.65;0.65;;;;;;;1.33;100.00;98615.53;29395;274;63009;-53
2023/12/18 02:19:25;;;;;;;0.80;0.80;;;;;;;1.34;100.00;98614.50;29417;217;63005;-54
2023/12/18 02:20:07;;;;;;;0.70;0.70;;;;;;;1.34;100.00;98617.16;29395;228;63009;-56
2023/12/18 02:20:42;;;;;;;0.70;0.70;;;;;;;1.33;100.00;98618.19;29395;206;63004;-54
2023/12/18 02:21:20;;;;;;;0.70;0.70;;;;;;;1.33;100.00;98609.34;29395;270;63009;-55
2023/12/18 02:21:53;;;;;;;0.70;0.70;;;;;;;1.34;100.00;98616.34;29395;228;63004;-54
2023/12/18 02:22:24;;;;;;;0.60;0.60;;;;;;;1.34;100.00;98622.53;29395;204;63016;-54
2023/12/18 02:22:56;;;;;;;0.60;0.60;;;;;;;1.34;100.00;98619.84;29394;209;64008;-54
2023/12/18 02:23:27;;;;;;;0.60;0.60;;;;;;;1.34;100.00;98617.16;29395;239;63008;-54
2023/12/18 02:23:59;;;;;;;0.60;0.60;;;;;;;1.33;100.00;98614.69;29395;215;63004;-54
2023/12/18 02:24:30;;;;;;;0.60;0.60;;;;;;;1.33;100.00;98615.53;29395;216;63009;-55
2023/12/18 02:25:01;;;;;;;0.70;0.70;;;;;;;1.34;100.00;98616.34;29395;224;63005;-54
2023/12/18 02:25:32;;;;;;;0.70;0.70;;;;;;;1.33;100.00;98615.53;29395;211;63009;-54
2023/12/18 02:26:04;;;;;;;0.60;0.60;;;;;;;1.34;100.00;98617.16;29395;209;63005;-55
2023/12/18 02:26:35;;;;;;;0.70;0.70;;;;;;;1.32;100.00;98613.87;29395;224;63009;-54
2023/12/18 02:27:07;;;;;;;0.60;0.60;;;;;;;1.34;100.00;98619.84;29395;226;63005;-55
2023/12/18 02:27:39;;;;;;;0.65;0.65;;;;;;;1.34;100.00;98611.81;29395;199;63009;-54
2023/12/18 02:28:11;;;;;;;5.03;4.80;;;;;;;1.35;100.00;98612.66;29394;211;64009;-55
2023/12/18 02:28:46;;;;;;;0.70;0.70;;;;;;;1.36;100.00;98618.84;29395;215;63009;-54
2023/12/18 02:29:17;;;;;;;0.60;0.60;;;;;;;1.36;100.00;98613.47;29395;343;63004;-54
2023/12/18 02:29:48;;;;;;;0.60;0.60;;;;;;;1.37;100.00;98618.62;29395;222;63015;-54
2023/12/18 02:30:24;;;;;;;0.60;0.60;;;;;;;1.37;100.00;98620.50;29395;196;63006;-54
2023/12/18 02:30:56;;;;;;;0.70;0.70;;;;;;;1.34;100.00;98611.81;29395;206;63009;-55
2023/12/18 02:31:30;;;;;;;0.70;0.70;;;;;;;1.34;100.00;98614.50;29395;224;63008;-54
2023/12/18 02:32:01;;;;;;;0.70;0.70;;;;;;;1.34;100.00;98616.34;29395;246;63009;-54